createdAt,value
2016-12-04T00:00:48.034Z,90.92
2016-12-04T00:01:56.714Z,90.45
2016-12-04T00:03:05.398Z,90.26
2016-12-04T00:04:14.083Z,90.07
2016-12-04T00:05:22.799Z,90.45
2016-12-04T00:06:31.480Z,91.01
2016-12-04T00:07:40.202Z,92.14
2016-12-04T00:08:48.883Z,92.43
2016-12-04T00:09:57.568Z,92.14
2016-12-04T00:11:06.280Z,91.67
2016-12-04T00:12:14.957Z,91.49
2016-12-04T00:13:23.642Z,91.77
2016-12-04T00:14:32.343Z,91.96
2016-12-04T00:15:41.024Z,91.96
2016-12-04T00:16:49.703Z,92.05
2016-12-04T00:17:58.387Z,91.86
2016-12-04T00:19:07.382Z,91.58
2016-12-04T00:20:16.066Z,92.05
2016-12-04T00:21:24.750Z,91.96
2016-12-04T00:22:33.436Z,92.14
2016-12-04T00:23:42.124Z,92.14
2016-12-04T00:24:50.804Z,92.52
2016-12-04T00:25:59.490Z,92.71
2016-12-04T00:27:08.171Z,92.33
2016-12-04T00:28:16.852Z,92.24
2016-12-04T00:29:25.535Z,91.39
2016-12-04T00:30:34.220Z,91.49
2016-12-04T00:31:42.940Z,91.11
2016-12-04T00:32:51.620Z,91.01
2016-12-04T00:34:00.323Z,91.39
2016-12-04T00:35:09.005Z,91.49
2016-12-04T00:36:17.690Z,90.54
2016-12-04T00:37:26.373Z,89.78
2016-12-04T00:38:35.055Z,89.69
2016-12-04T00:39:43.741Z,89.5
2016-12-04T00:40:52.424Z,89.4
2016-12-04T00:42:01.105Z,89.69
2016-12-04T00:43:09.796Z,89.69
2016-12-04T00:44:18.479Z,90.16
2016-12-04T00:45:27.168Z,89.97
2016-12-04T00:46:35.849Z,90.26
2016-12-04T00:47:44.533Z,90.45
2016-12-04T00:48:53.214Z,90.73
2016-12-04T00:50:01.897Z,91.3
2016-12-04T00:51:10.575Z,90.64
2016-12-04T00:52:19.258Z,90.54
2016-12-04T00:53:27.943Z,90.16
2016-12-04T00:54:36.625Z,90.64
2016-12-04T00:55:45.305Z,90.82
2016-12-04T00:56:53.985Z,91.01
2016-12-04T00:58:02.668Z,91.49
2016-12-04T00:59:11.355Z,91.96
2016-12-04T01:00:20.362Z,91.49
2016-12-04T01:01:29.045Z,91.01
2016-12-04T01:02:37.726Z,91.3
2016-12-04T01:03:46.408Z,91.49
2016-12-04T01:04:55.090Z,91.39
2016-12-04T01:06:03.772Z,91.3
2016-12-04T01:07:12.463Z,92.14
2016-12-04T01:08:21.152Z,91.58
2016-12-04T01:09:29.838Z,92.14
2016-12-04T01:10:38.521Z,91.3
2016-12-04T01:11:47.204Z,91.3
2016-12-04T01:12:55.887Z,90.45
2016-12-04T01:14:04.569Z,89.88
2016-12-04T01:15:13.287Z,90.54
2016-12-04T01:16:21.980Z,91.67
2016-12-04T01:17:30.661Z,91.49
2016-12-04T01:18:39.347Z,91.67
2016-12-04T01:19:48.036Z,91.3
2016-12-04T01:20:56.719Z,91.49
2016-12-04T01:22:05.408Z,91.49
2016-12-04T01:23:14.091Z,91.58
2016-12-04T01:24:22.772Z,92.14
2016-12-04T01:25:31.458Z,91.2
2016-12-04T01:26:40.140Z,92.05
2016-12-04T01:27:48.821Z,91.67
2016-12-04T01:28:57.504Z,92.05
2016-12-04T01:30:06.185Z,92.14
2016-12-04T01:31:14.866Z,92.43
2016-12-04T01:32:23.551Z,92.9
2016-12-04T01:33:32.236Z,92.8
2016-12-04T01:34:40.915Z,92.43
2016-12-04T01:35:49.600Z,92.05
2016-12-04T01:36:58.285Z,91.49
2016-12-04T01:38:06.968Z,91.58
2016-12-04T01:39:15.652Z,91.82
2016-12-04T01:40:24.334Z,92.1
2016-12-04T01:41:33.016Z,92.76
2016-12-04T01:42:41.697Z,93.89
2016-12-04T01:43:50.383Z,93.8
2016-12-04T01:44:59.068Z,93.37
2016-12-04T01:46:07.750Z,93.28
2016-12-04T01:47:16.448Z,92.24
2016-12-04T01:48:25.139Z,91.3
2016-12-04T01:49:33.819Z,91.01
2016-12-04T01:50:42.512Z,91.58
2016-12-04T01:51:51.193Z,91.11
2016-12-04T01:52:59.871Z,91.91
2016-12-04T01:54:08.559Z,92.1
2016-12-04T01:55:17.247Z,92.14
2016-12-04T01:56:25.967Z,91.72
2016-12-04T01:57:34.648Z,91.91
2016-12-04T01:58:43.332Z,91.16
2016-12-04T01:59:52.015Z,91.91
2016-12-04T02:01:00.702Z,92.38
2016-12-04T02:02:09.386Z,92.47
2016-12-04T02:03:18.064Z,92.38
2016-12-04T02:04:26.755Z,91.91
2016-12-04T02:05:35.440Z,91.82
2016-12-04T02:06:44.433Z,92.38
2016-12-04T02:07:53.116Z,92.76
2016-12-04T02:09:01.798Z,92.76
2016-12-04T02:10:10.482Z,93.7
2016-12-04T02:11:19.168Z,93.23
2016-12-04T02:12:27.851Z,93.61
2016-12-04T02:13:36.532Z,93.13
2016-12-04T02:14:45.214Z,92.57
2016-12-04T02:15:53.894Z,92.57
2016-12-04T02:17:02.594Z,92.85
2016-12-04T02:18:11.277Z,93.51
2016-12-04T02:19:19.958Z,93.51
2016-12-04T02:20:28.646Z,93.32
2016-12-04T02:21:37.331Z,92.76
2016-12-04T02:22:46.008Z,92.85
2016-12-04T02:23:54.689Z,92.57
2016-12-04T02:25:03.374Z,93.32
2016-12-04T02:26:12.058Z,93.42
2016-12-04T02:27:20.843Z,93.42
2016-12-04T02:28:29.527Z,94.27
2016-12-04T02:29:38.206Z,93.7
2016-12-04T02:30:46.889Z,93.51
2016-12-04T02:31:55.574Z,93.23
2016-12-04T02:33:04.258Z,92.8
2016-12-04T02:34:12.935Z,92.61
2016-12-04T02:35:21.933Z,91.39
2016-12-04T02:36:30.611Z,91.2
2016-12-04T02:37:39.287Z,91.3
2016-12-04T02:38:47.967Z,91.39
2016-12-04T02:39:56.645Z,92.05
2016-12-04T02:41:05.326Z,92.33
2016-12-04T02:42:14.017Z,92.33
2016-12-04T02:43:22.725Z,91.96
2016-12-04T02:44:31.404Z,90.82
2016-12-04T02:45:40.081Z,89.97
2016-12-04T02:46:48.792Z,89.97
2016-12-04T02:47:57.482Z,90.07
2016-12-04T02:49:06.159Z,89.97
2016-12-04T02:50:14.853Z,90.68
2016-12-04T02:51:23.530Z,91.16
2016-12-04T02:52:32.216Z,92.29
2016-12-04T02:53:40.902Z,91.91
2016-12-04T02:54:49.592Z,91.35
2016-12-04T02:55:58.271Z,90.82
2016-12-04T02:57:06.957Z,91.2
2016-12-04T02:58:15.647Z,91.49
2016-12-04T02:59:24.332Z,91.39
2016-12-04T03:00:33.017Z,91.3
2016-12-04T03:01:41.706Z,90.54
2016-12-04T03:02:50.394Z,89.69
2016-12-04T03:03:59.080Z,89.4
2016-12-04T03:05:07.763Z,90.26
2016-12-04T03:06:16.446Z,90.64
2016-12-04T03:07:25.285Z,90.45
2016-12-04T03:08:33.964Z,90.73
2016-12-04T03:09:42.645Z,91.01
2016-12-04T03:10:51.329Z,91.2
2016-12-04T03:12:00.012Z,92.24
2016-12-04T03:13:09.065Z,92.52
2016-12-04T03:14:17.743Z,92.52
2016-12-04T03:15:26.425Z,92.9
2016-12-04T03:16:35.107Z,92.24
2016-12-04T03:17:43.785Z,91.49
2016-12-04T03:18:52.514Z,90.26
2016-12-04T03:20:01.203Z,90.16
2016-12-04T03:21:09.886Z,90.35
2016-12-04T03:22:18.563Z,90.35
2016-12-04T03:23:27.558Z,91.11
2016-12-04T03:24:36.238Z,91.2
2016-12-04T03:25:44.914Z,91.2
2016-12-04T03:26:53.629Z,91.67
2016-12-04T03:28:02.311Z,91.11
2016-12-04T03:29:10.989Z,91.01
2016-12-04T03:30:19.672Z,89.83
2016-12-04T03:31:28.353Z,89.4
2016-12-04T03:32:37.033Z,89.59
2016-12-04T03:33:45.713Z,89.69
2016-12-04T03:34:54.394Z,89.59
2016-12-04T03:36:03.075Z,90.07
2016-12-04T03:37:11.758Z,90.07
2016-12-04T03:38:20.440Z,89.69
2016-12-04T03:39:29.119Z,90.26
2016-12-04T03:40:37.809Z,90.45
2016-12-04T03:41:46.488Z,91.3
2016-12-04T03:42:55.170Z,90.54
2016-12-04T03:44:04.570Z,89.97
2016-12-04T03:45:13.253Z,90.64
2016-12-04T03:46:21.935Z,91.01
2016-12-04T03:47:30.628Z,91.3
2016-12-04T03:48:39.316Z,91.39
2016-12-04T03:49:47.997Z,92.33
2016-12-04T03:50:56.677Z,93.32
2016-12-04T03:52:05.361Z,93.18
2016-12-04T03:53:14.039Z,92.9
2016-12-04T03:54:22.719Z,91.96
2016-12-04T03:55:31.397Z,92.71
2016-12-04T03:56:40.075Z,93.18
2016-12-04T03:57:48.758Z,92.61
2016-12-04T03:58:57.438Z,92.8
2016-12-04T04:00:06.117Z,92.9
2016-12-04T04:01:15.122Z,93.37
2016-12-04T04:02:23.806Z,92.99
2016-12-04T04:03:32.512Z,93.28
2016-12-04T04:04:41.192Z,93.94
2016-12-04T04:05:49.878Z,93.28
2016-12-04T04:06:58.559Z,93.66
2016-12-04T04:08:07.242Z,93.56
2016-12-04T04:09:15.925Z,93.84
2016-12-04T04:10:24.606Z,93.47
2016-12-04T04:11:33.302Z,92.61
2016-12-04T04:12:41.985Z,91.2
2016-12-04T04:13:50.668Z,91.49
2016-12-04T04:14:59.349Z,91.49
2016-12-04T04:16:08.100Z,91.58
2016-12-04T04:17:16.777Z,92.52
2016-12-04T04:18:25.462Z,92.61
2016-12-04T04:19:34.148Z,92.43
2016-12-04T04:20:42.833Z,92.66
2016-12-04T04:21:51.826Z,93.32
2016-12-04T04:23:00.513Z,92.66
2016-12-04T04:24:09.197Z,93.04
2016-12-04T04:25:17.879Z,92.38
2016-12-04T04:26:26.592Z,92.38
2016-12-04T04:27:35.278Z,92.76
2016-12-04T04:28:43.959Z,93.32
2016-12-04T04:29:52.640Z,93.7
2016-12-04T04:31:01.327Z,93.61
2016-12-04T04:32:10.325Z,94.18
2016-12-04T04:33:19.009Z,94.55
2016-12-04T04:34:27.698Z,94.36
2016-12-04T04:35:36.380Z,93.89
2016-12-04T04:36:45.065Z,93.7
2016-12-04T04:37:53.753Z,94.84
2016-12-04T04:39:02.440Z,94.65
2016-12-04T04:40:11.126Z,95.03
2016-12-04T04:41:19.805Z,94.84
2016-12-04T04:42:28.495Z,94.93
2016-12-04T04:43:37.182Z,94.65
2016-12-04T04:44:45.895Z,94.18
2016-12-04T04:45:54.577Z,93.32
2016-12-04T04:47:03.261Z,93.23
2016-12-04T04:48:12.294Z,92.95
2016-12-04T04:49:20.980Z,92.57
2016-12-04T04:50:29.978Z,93.23
2016-12-04T04:51:38.669Z,93.7
2016-12-04T04:52:47.354Z,93.42
2016-12-04T04:53:56.040Z,94.55
2016-12-04T04:55:04.727Z,95.03
2016-12-04T04:56:13.411Z,94.65
2016-12-04T04:57:22.097Z,95.12
2016-12-04T04:58:30.778Z,94.65
2016-12-04T04:59:39.462Z,94.36
2016-12-04T05:00:48.144Z,93.8
2016-12-04T05:01:56.830Z,94.55
2016-12-04T05:03:05.512Z,93.37
2016-12-04T05:04:14.196Z,92.99
2016-12-04T05:05:22.875Z,91.96
2016-12-04T05:06:31.560Z,90.92
2016-12-04T05:07:40.242Z,91.3
2016-12-04T05:08:48.922Z,90.64
2016-12-04T05:09:57.610Z,91.3
2016-12-04T05:11:06.324Z,91.96
2016-12-04T05:12:15.007Z,92.14
2016-12-04T05:13:23.687Z,91.58
2016-12-04T05:14:32.370Z,90.82
2016-12-04T05:15:41.368Z,90.73
2016-12-04T05:16:50.054Z,90.26
2016-12-04T05:17:58.737Z,90.45
2016-12-04T05:19:07.424Z,89.78
2016-12-04T05:20:16.106Z,89.88
2016-12-04T05:21:24.790Z,89.78
2016-12-04T05:22:33.475Z,90.16
2016-12-04T05:23:42.158Z,90.26
2016-12-04T05:24:50.840Z,90.16
2016-12-04T05:25:59.524Z,89.97
2016-12-04T05:27:08.207Z,91.01
2016-12-04T05:28:16.889Z,90.54
2016-12-04T05:29:25.572Z,90.07
2016-12-04T05:30:34.257Z,90.35
2016-12-04T05:31:43.256Z,90.64
2016-12-04T05:32:51.942Z,91.01
2016-12-04T05:34:00.628Z,91.01
2016-12-04T05:35:09.316Z,90.82
2016-12-04T05:36:18.007Z,91.67
2016-12-04T05:37:26.689Z,91.77
2016-12-04T05:38:35.371Z,91.11
2016-12-04T05:39:44.051Z,90.49
2016-12-04T05:40:52.740Z,90.16
2016-12-04T05:42:01.429Z,90.54
2016-12-04T05:43:10.114Z,90.49
2016-12-04T05:44:18.798Z,90.02
2016-12-04T05:45:27.487Z,89.83
2016-12-04T05:46:36.171Z,89.88
2016-12-04T05:47:44.853Z,89.64
2016-12-04T05:48:53.545Z,90.16
2016-12-04T05:50:02.228Z,89.92
2016-12-04T05:51:10.916Z,89.83
2016-12-04T05:52:19.608Z,90.02
2016-12-04T05:53:28.296Z,89.88
2016-12-04T05:54:36.983Z,89.73
2016-12-04T05:55:45.668Z,89.88
2016-12-04T05:56:54.357Z,89.97
2016-12-04T05:58:03.045Z,90.45
2016-12-04T05:59:11.725Z,91.53
2016-12-04T06:00:20.411Z,91.15
2016-12-04T06:01:29.099Z,90.3
2016-12-04T06:02:38.108Z,90.02
2016-12-04T06:03:46.784Z,90.3
2016-12-04T06:04:55.464Z,90.3
2016-12-04T06:06:04.149Z,89.36
2016-12-04T06:07:12.837Z,89.64
2016-12-04T06:08:21.522Z,89.64
2016-12-04T06:09:30.232Z,89.64
2016-12-04T06:10:38.917Z,88.7
2016-12-04T06:11:47.607Z,89.17
2016-12-04T06:12:56.293Z,89.36
2016-12-04T06:14:04.981Z,88.89
2016-12-04T06:15:13.666Z,88.79
2016-12-04T06:16:22.350Z,88.89
2016-12-04T06:17:31.032Z,89.26
2016-12-04T06:18:39.709Z,89.64
2016-12-04T06:19:48.389Z,89.73
2016-12-04T06:20:57.074Z,89.73
2016-12-04T06:22:05.755Z,89.73
2016-12-04T06:23:14.761Z,90.68
2016-12-04T06:24:23.460Z,90.59
2016-12-04T06:25:32.141Z,90.3
2016-12-04T06:26:40.827Z,90.02
2016-12-04T06:27:49.520Z,89.54
2016-12-04T06:28:58.208Z,88.79
2016-12-04T06:30:06.893Z,89.54
2016-12-04T06:31:15.576Z,89.07
2016-12-04T06:32:24.261Z,89.64
2016-12-04T06:33:32.942Z,90.59
2016-12-04T06:34:41.632Z,90.49
2016-12-04T06:35:50.348Z,90.4
2016-12-04T06:36:59.031Z,90.02
2016-12-04T06:38:07.721Z,89.26
2016-12-04T06:39:16.405Z,88.7
2016-12-04T06:40:25.112Z,88.23
2016-12-04T06:41:33.796Z,88.89
2016-12-04T06:42:42.481Z,89.26
2016-12-04T06:43:51.166Z,89.07
2016-12-04T06:44:59.850Z,88.7
2016-12-04T06:46:08.537Z,88.98
2016-12-04T06:47:17.220Z,89.07
2016-12-04T06:48:25.903Z,88.98
2016-12-04T06:49:34.589Z,88.6
2016-12-04T06:50:43.303Z,88.79
2016-12-04T06:51:51.994Z,88.79
2016-12-04T06:53:00.672Z,88.89
2016-12-04T06:54:09.353Z,88.7
2016-12-04T06:55:18.039Z,89.36
2016-12-04T06:56:26.721Z,89.26
2016-12-04T06:57:35.403Z,88.7
2016-12-04T06:58:44.087Z,88.7
2016-12-04T06:59:52.769Z,89.54
2016-12-04T07:01:01.457Z,89.64
2016-12-04T07:02:10.192Z,88.7
2016-12-04T07:03:18.878Z,87.89
2016-12-04T07:04:27.561Z,87.7
2016-12-04T07:05:36.241Z,87.04
2016-12-04T07:06:44.928Z,87.32
2016-12-04T07:07:53.616Z,87.98
2016-12-04T07:09:02.302Z,89.03
2016-12-04T07:10:10.992Z,89.4
2016-12-04T07:11:19.675Z,88.84
2016-12-04T07:12:28.353Z,89.12
2016-12-04T07:13:37.042Z,88.46
2016-12-04T07:14:45.721Z,88.17
2016-12-04T07:15:54.413Z,88.74
2016-12-04T07:17:03.101Z,89.03
2016-12-04T07:18:11.784Z,89.12
2016-12-04T07:19:20.469Z,89.4
2016-12-04T07:20:29.471Z,89.12
2016-12-04T07:21:38.149Z,88.36
2016-12-04T07:22:46.829Z,89.03
2016-12-04T07:23:55.515Z,88.46
2016-12-04T07:25:04.200Z,87.7
2016-12-04T07:26:12.883Z,88.08
2016-12-04T07:27:21.568Z,88.55
2016-12-04T07:28:30.255Z,88.65
2016-12-04T07:29:38.936Z,87.61
2016-12-04T07:30:47.615Z,87.61
2016-12-04T07:31:56.295Z,86.94
2016-12-04T07:33:04.979Z,85.81
2016-12-04T07:34:13.667Z,85.15
2016-12-04T07:35:22.350Z,85.43
2016-12-04T07:36:31.029Z,85.53
2016-12-04T07:37:39.748Z,85.34
2016-12-04T07:38:48.431Z,84.86
2016-12-04T07:39:57.122Z,84.49
2016-12-04T07:41:05.807Z,84.3
2016-12-04T07:42:14.485Z,84.58
2016-12-04T07:43:23.174Z,85.62
2016-12-04T07:44:31.863Z,86
2016-12-04T07:45:40.550Z,87.04
2016-12-04T07:46:49.232Z,87.13
2016-12-04T07:47:57.915Z,87.42
2016-12-04T07:49:06.602Z,87.89
2016-12-04T07:50:15.284Z,87.51
2016-12-04T07:51:23.966Z,88.74
2016-12-04T07:52:32.660Z,88.46
2016-12-04T07:53:41.345Z,88.55
2016-12-04T07:54:50.027Z,88.36
2016-12-04T07:55:58.712Z,87.7
2016-12-04T07:57:07.396Z,87.42
2016-12-04T07:58:16.080Z,87.42
2016-12-04T07:59:24.768Z,87.37
2016-12-04T08:00:33.460Z,87.47
2016-12-04T08:01:42.147Z,87.28
2016-12-04T08:02:50.841Z,87.85
2016-12-04T08:03:59.525Z,88.6
2016-12-04T08:05:08.206Z,88.89
2016-12-04T08:06:16.888Z,88.98
2016-12-04T08:07:25.572Z,88.84
2016-12-04T08:08:34.257Z,87.89
2016-12-04T08:09:42.940Z,87.51
2016-12-04T08:10:51.668Z,87.51
2016-12-04T08:12:00.351Z,88.65
2016-12-04T08:13:09.033Z,88.46
2016-12-04T08:14:17.715Z,87.7
2016-12-04T08:15:26.391Z,87.61
2016-12-04T08:16:35.075Z,86.85
2016-12-04T08:17:43.758Z,87.23
2016-12-04T08:18:52.440Z,87.13
2016-12-04T08:20:01.125Z,87.51
2016-12-04T08:21:09.811Z,87.61
2016-12-04T08:22:18.494Z,87.51
2016-12-04T08:23:27.179Z,87.04
2016-12-04T08:24:35.864Z,87.98
2016-12-04T08:25:44.547Z,87.79
2016-12-04T08:26:53.232Z,87.7
2016-12-04T08:28:01.917Z,87.51
2016-12-04T08:29:10.923Z,87.42
2016-12-04T08:30:19.928Z,87.13
2016-12-04T08:31:28.613Z,87.04
2016-12-04T08:32:37.305Z,87.04
2016-12-04T08:33:45.989Z,87.61
2016-12-04T08:34:54.671Z,87.13
2016-12-04T08:36:03.366Z,87.42
2016-12-04T08:37:12.375Z,87.51
2016-12-04T08:38:21.068Z,87.32
2016-12-04T08:39:29.750Z,87.89
2016-12-04T08:40:38.435Z,88.17
2016-12-04T08:41:47.122Z,88.46
2016-12-04T08:42:55.807Z,88.27
2016-12-04T08:44:04.500Z,88.08
2016-12-04T08:45:13.193Z,87.32
2016-12-04T08:46:21.874Z,87.51
2016-12-04T08:47:30.561Z,87.42
2016-12-04T08:48:39.245Z,87.32
2016-12-04T08:49:47.937Z,87.51
2016-12-04T08:50:56.660Z,87.7
2016-12-04T08:52:05.343Z,87.13
2016-12-04T08:53:14.028Z,87.04
2016-12-04T08:54:22.710Z,86.19
2016-12-04T08:55:31.715Z,86.19
2016-12-04T08:56:40.398Z,86.29
2016-12-04T08:57:49.095Z,85.72
2016-12-04T08:58:57.780Z,84.86
2016-12-04T09:00:06.465Z,84.68
2016-12-04T09:01:15.150Z,84.11
2016-12-04T09:02:23.864Z,85.15
2016-12-04T09:03:32.548Z,85.24
2016-12-04T09:04:41.255Z,84.96
2016-12-04T09:05:49.938Z,84.81
2016-12-04T09:06:58.625Z,85
2016-12-04T09:08:07.310Z,84.81
2016-12-04T09:09:15.999Z,84.72
2016-12-04T09:10:24.684Z,84.53
2016-12-04T09:11:33.364Z,84.06
2016-12-04T09:12:42.048Z,83.4
2016-12-04T09:13:50.728Z,84.16
2016-12-04T09:14:59.415Z,84.63
2016-12-04T09:16:08.100Z,83.97
2016-12-04T09:17:16.789Z,83.3
2016-12-04T09:18:25.537Z,83.49
2016-12-04T09:19:34.222Z,83.11
2016-12-04T09:20:42.933Z,83.87
2016-12-04T09:21:51.615Z,83.11
2016-12-04T09:23:00.299Z,82.35
2016-12-04T09:24:08.986Z,82.07
2016-12-04T09:25:17.673Z,81.98
2016-12-04T09:26:26.357Z,81.41
2016-12-04T09:27:35.042Z,81.41
2016-12-04T09:28:43.729Z,82.07
2016-12-04T09:29:52.414Z,83.21
2016-12-04T09:31:01.095Z,84.16
2016-12-04T09:32:09.781Z,83.87
2016-12-04T09:33:18.471Z,83.59
2016-12-04T09:34:27.483Z,84.06
2016-12-04T09:35:36.165Z,83.97
2016-12-04T09:36:44.848Z,83.11
2016-12-04T09:37:53.533Z,82.45
2016-12-04T09:39:02.219Z,82.83
2016-12-04T09:40:10.913Z,82.07
2016-12-04T09:41:19.611Z,81.98
2016-12-04T09:42:28.300Z,82.64
2016-12-04T09:43:37.306Z,82.92
2016-12-04T09:44:45.994Z,83.02
2016-12-04T09:45:54.682Z,82.45
2016-12-04T09:47:03.371Z,82.07
2016-12-04T09:48:12.051Z,82.17
2016-12-04T09:49:20.736Z,82.07
2016-12-04T09:50:29.428Z,81.79
2016-12-04T09:51:38.111Z,81.79
2016-12-04T09:52:46.793Z,82.35
2016-12-04T09:53:55.480Z,82.92
2016-12-04T09:55:04.166Z,82.64
2016-12-04T09:56:12.860Z,82.73
2016-12-04T09:57:21.546Z,83.02
2016-12-04T09:58:30.256Z,83.21
2016-12-04T09:59:38.939Z,83.02
2016-12-04T10:00:47.627Z,82.45
2016-12-04T10:01:56.314Z,83.11
2016-12-04T10:03:05.310Z,82.35
2016-12-04T10:04:13.998Z,83.11
2016-12-04T10:05:22.682Z,82.64
2016-12-04T10:06:31.366Z,83.49
2016-12-04T10:07:40.050Z,83.87
2016-12-04T10:08:48.733Z,84.53
2016-12-04T10:09:57.732Z,85.57
2016-12-04T10:11:06.420Z,86.04
2016-12-04T10:12:15.107Z,86.14
2016-12-04T10:13:23.794Z,86.9
2016-12-04T10:14:32.480Z,87.42
2016-12-04T10:15:41.481Z,86.94
2016-12-04T10:16:50.166Z,86.57
2016-12-04T10:17:58.847Z,86.99
2016-12-04T10:19:07.854Z,86.61
2016-12-04T10:20:16.541Z,86.9
2016-12-04T10:21:25.226Z,86.42
2016-12-04T10:22:33.914Z,85.47
2016-12-04T10:23:42.606Z,85.38
2016-12-04T10:24:51.289Z,85.76
2016-12-04T10:25:59.978Z,86.23
2016-12-04T10:27:08.664Z,86.42
2016-12-04T10:28:17.355Z,86.61
2016-12-04T10:29:26.069Z,86.71
2016-12-04T10:30:34.759Z,86.71
2016-12-04T10:31:43.446Z,86.71
2016-12-04T10:32:52.442Z,86.61
2016-12-04T10:34:01.159Z,86.61
2016-12-04T10:35:09.841Z,86.33
2016-12-04T10:36:18.526Z,85.95
2016-12-04T10:37:27.235Z,86.04
2016-12-04T10:38:35.916Z,85.47
2016-12-04T10:39:44.606Z,84.91
2016-12-04T10:40:53.294Z,85.38
2016-12-04T10:42:01.979Z,84.25
2016-12-04T10:43:10.678Z,83.06
2016-12-04T10:44:19.678Z,81.45
2016-12-04T10:45:28.369Z,80.41
2016-12-04T10:46:37.055Z,80.04
2016-12-04T10:47:45.740Z,79.69
2016-12-04T10:48:54.428Z,79.13
2016-12-04T10:50:03.426Z,77.99
2016-12-04T10:51:12.122Z,77.99
2016-12-04T10:52:20.809Z,78.37
2016-12-04T10:53:29.498Z,78.08
2016-12-04T10:54:38.185Z,78.08
2016-12-04T10:55:47.198Z,77.33
2016-12-04T10:56:55.886Z,77.42
2016-12-04T10:58:04.576Z,77.33
2016-12-04T10:59:13.264Z,77.42
2016-12-04T11:00:21.949Z,77.33
2016-12-04T11:01:30.639Z,77.14
2016-12-04T11:02:39.323Z,77.14
2016-12-04T11:03:48.012Z,76.48
2016-12-04T11:04:56.700Z,76.38
2016-12-04T11:06:05.388Z,76.86
2016-12-04T11:07:14.081Z,76.14
2016-12-04T11:08:22.771Z,76.89
2016-12-04T11:09:31.457Z,76.23
2016-12-04T11:10:40.142Z,75.76
2016-12-04T11:11:48.840Z,75.09
2016-12-04T11:12:57.534Z,75.19
2016-12-04T11:14:06.227Z,73.77
2016-12-04T11:15:14.916Z,73.52
2016-12-04T11:16:23.602Z,73.43
2016-12-04T11:17:32.290Z,73.33
2016-12-04T11:18:40.978Z,73.24
2016-12-04T11:19:49.670Z,72.48
2016-12-04T11:20:58.371Z,72.48
2016-12-04T11:22:07.061Z,72.29
2016-12-04T11:23:15.753Z,72.19
2016-12-04T11:24:24.444Z,72.38
2016-12-04T11:25:33.144Z,72.29
2016-12-04T11:26:41.836Z,72.29
2016-12-04T11:27:50.523Z,72.29
2016-12-04T11:28:59.215Z,72
2016-12-04T11:30:08.221Z,72.19
2016-12-04T11:31:16.965Z,71.72
2016-12-04T11:32:25.963Z,71.25
2016-12-04T11:33:34.648Z,72.1
2016-12-04T11:34:43.339Z,72.19
2016-12-04T11:35:52.024Z,72.38
2016-12-04T11:37:00.721Z,72.29
2016-12-04T11:38:09.410Z,72.48
2016-12-04T11:39:18.102Z,72.19
2016-12-04T11:40:26.804Z,72.29
2016-12-04T11:41:35.810Z,71.38
2016-12-04T11:42:44.505Z,71.38
2016-12-04T11:43:53.224Z,71.57
2016-12-04T11:45:01.908Z,71.57
2016-12-04T11:46:10.602Z,70.9
2016-12-04T11:47:19.296Z,70.81
2016-12-04T11:48:27.986Z,70.43
2016-12-04T11:49:36.672Z,69.57
2016-12-04T11:50:45.360Z,69.2
2016-12-04T11:51:54.052Z,69.2
2016-12-04T11:53:02.743Z,69.1
2016-12-04T11:54:11.429Z,68.73
2016-12-04T11:55:20.119Z,69.77
2016-12-04T11:56:28.810Z,69.67
2016-12-04T11:57:37.499Z,69.86
2016-12-04T11:58:46.195Z,69.67
2016-12-04T11:59:54.889Z,69.57
2016-12-04T12:01:03.607Z,70.05
2016-12-04T12:02:12.303Z,69.57
2016-12-04T12:03:20.998Z,69.2
2016-12-04T12:04:29.684Z,69.2
2016-12-04T12:05:38.372Z,68.44
2016-12-04T12:06:47.061Z,69.48
2016-12-04T12:07:56.063Z,69.38
2016-12-04T12:09:04.753Z,69.48
2016-12-04T12:10:13.441Z,69.38
2016-12-04T12:11:22.131Z,67.9
2016-12-04T12:12:30.846Z,66.01
2016-12-04T12:13:39.533Z,64.71
2016-12-04T12:14:48.545Z,63.48
2016-12-04T12:15:57.551Z,62.46
2016-12-04T12:17:06.246Z,61.52
2016-12-04T12:18:14.939Z,60.5
2016-12-04T12:19:23.630Z,60.31
2016-12-04T12:20:32.324Z,60.28
2016-12-04T12:21:41.013Z,61.14
2016-12-04T12:22:52.344Z,60.5
2016-12-04T12:24:01.036Z,59.74
2016-12-04T12:25:09.757Z,59.49
2016-12-04T12:26:18.454Z,59.2
2016-12-04T12:27:27.148Z,58.8
2016-12-04T12:28:35.990Z,58.16
2016-12-04T12:29:44.998Z,58.44
2016-12-04T12:30:53.692Z,58.44
2016-12-04T12:32:02.393Z,59.01
2016-12-04T12:33:11.085Z,58.98
2016-12-04T12:34:20.125Z,59.46
2016-12-04T12:35:28.815Z,60.79
2016-12-04T12:36:37.497Z,61.42
2016-12-04T12:37:46.192Z,62.72
2016-12-04T12:38:55.510Z,63.57
2016-12-04T12:40:04.256Z,64.14
2016-12-04T12:41:12.943Z,64.01
2016-12-04T12:42:21.641Z,64.05
2016-12-04T12:43:30.331Z,63.39
2016-12-04T12:44:39.030Z,62.53
2016-12-04T12:45:47.774Z,62.53
2016-12-04T12:46:56.459Z,63.57
2016-12-04T12:48:05.149Z,64.87
2016-12-04T12:49:13.839Z,65.59
2016-12-04T12:50:22.532Z,67.11
2016-12-04T12:51:31.280Z,69.54
2016-12-04T12:52:39.971Z,71.06
2016-12-04T12:53:48.661Z,71.72
2016-12-04T12:54:57.353Z,71.06
2016-12-04T12:56:06.362Z,70.87
2016-12-04T12:57:15.106Z,69.2
2016-12-04T12:58:23.790Z,67.87
2016-12-04T12:59:32.477Z,67.4
2016-12-04T13:00:41.186Z,66.48
2016-12-04T13:01:49.875Z,65.34
2016-12-04T13:02:58.672Z,64.59
2016-12-04T13:04:07.361Z,63.39
2016-12-04T13:05:16.050Z,62.66
2016-12-04T13:06:24.734Z,61.71
2016-12-04T13:07:33.423Z,62.46
2016-12-04T13:08:42.162Z,62.72
2016-12-04T13:09:50.865Z,62.43
2016-12-04T13:10:59.553Z,63.01
2016-12-04T13:12:08.240Z,64.05
2016-12-04T13:13:16.938Z,65.25
2016-12-04T13:14:25.996Z,66.83
2016-12-04T13:15:34.694Z,69.48
2016-12-04T13:16:43.382Z,70.68
2016-12-04T13:17:52.070Z,72.19
2016-12-04T13:19:01.075Z,73.39
2016-12-04T13:20:09.812Z,74.71
2016-12-04T13:21:18.503Z,75.19
2016-12-04T13:22:27.207Z,76.19
2016-12-04T13:23:35.895Z,76.67
2016-12-04T13:24:44.580Z,77.14
2016-12-04T13:25:53.317Z,77.33
2016-12-04T13:27:02.004Z,77.89
2016-12-04T13:28:10.694Z,78.27
2016-12-04T13:29:19.384Z,78.8
2016-12-04T13:30:28.388Z,79.18
2016-12-04T13:31:37.125Z,79.94
2016-12-04T13:32:45.817Z,80.41
2016-12-04T13:33:54.523Z,80.32
2016-12-04T13:35:03.211Z,80.79
2016-12-04T13:36:11.900Z,81.17
2016-12-04T13:37:20.636Z,81.36
2016-12-04T13:38:29.641Z,81.26
2016-12-04T13:39:38.323Z,81.74
2016-12-04T13:40:47.006Z,82.21
2016-12-04T13:41:55.692Z,82.26
2016-12-04T13:43:04.428Z,83.06
2016-12-04T13:44:13.110Z,83.02
2016-12-04T13:45:21.795Z,83.02
2016-12-04T13:46:30.478Z,83.11
2016-12-04T13:47:39.164Z,83.21
2016-12-04T13:48:47.900Z,84.06
2016-12-04T13:49:56.581Z,84.16
2016-12-04T13:51:05.273Z,84.44
2016-12-04T13:52:13.960Z,84.25
2016-12-04T13:53:22.648Z,83.97
2016-12-04T13:54:31.381Z,84.34
2016-12-04T13:55:40.065Z,83.87
2016-12-04T13:56:48.749Z,83.78
2016-12-04T13:57:57.440Z,83.87
2016-12-04T13:59:06.122Z,84.06
2016-12-04T14:00:14.857Z,83.97
2016-12-04T14:01:23.575Z,84.53
2016-12-04T14:02:32.270Z,84.34
2016-12-04T14:03:40.957Z,85.28
2016-12-04T14:04:49.643Z,85.19
2016-12-04T14:05:58.375Z,85.85
2016-12-04T14:07:07.068Z,86.19
2016-12-04T14:08:15.754Z,86.38
2016-12-04T14:09:24.441Z,86.47
2016-12-04T14:10:33.137Z,86.19
2016-12-04T14:11:41.869Z,86.57
2016-12-04T14:12:50.557Z,86.38
2016-12-04T14:13:59.272Z,86.38
2016-12-04T14:15:07.958Z,86.29
2016-12-04T14:16:16.644Z,85.81
2016-12-04T14:17:25.380Z,85.72
2016-12-04T14:18:34.072Z,85.62
2016-12-04T14:19:42.758Z,85.81
2016-12-04T14:20:51.446Z,85.72
2016-12-04T14:22:00.130Z,85.81
2016-12-04T14:23:08.919Z,85.72
2016-12-04T14:24:17.601Z,85.53
2016-12-04T14:25:26.285Z,85.81
2016-12-04T14:26:34.973Z,86.47
2016-12-04T14:27:43.656Z,86.29
2016-12-04T14:28:52.387Z,86.38
2016-12-04T14:30:01.073Z,86.19
2016-12-04T14:31:10.077Z,86.38
2016-12-04T14:32:18.765Z,86.29
2016-12-04T14:33:27.450Z,85.81
2016-12-04T14:34:36.182Z,86.66
2016-12-04T14:35:44.867Z,86.19
2016-12-04T14:36:53.548Z,86
2016-12-04T14:38:02.236Z,86.29
2016-12-04T14:39:10.922Z,86.66
2016-12-04T14:40:19.659Z,86.99
2016-12-04T14:41:28.344Z,86.76
2016-12-04T14:42:37.032Z,86.99
2016-12-04T14:43:45.712Z,86.52
2016-12-04T14:44:54.398Z,85.76
2016-12-04T14:46:03.136Z,85.81
2016-12-04T14:47:12.134Z,85.62
2016-12-04T14:48:20.819Z,86